Time;durP1;ratioP1;P1;durP2;ratioP2;P2;SDS_P1;SDS_P2;PMS_P1;PMS_P2;Temp;Humidity;BMP_temperature;BMP_pressure;BME280_temperature;BME280_humidity;BME280_pressure;Samples;Min_cycle;Max_cycle;Signal;HPM_P1;HPM_P2
2023/09/21 00:01:18;;;;;;;;;;;;;;;32.41;27.56;97959.78;5003921;28;19913;-92
2023/09/21 00:03:44;;;;;;;;;;;;;;;32.42;27.72;97964.19;5009317;28;19933;-93
2023/09/21 00:06:12;;;;;;;;;;;;;;;32.73;27.02;97961.56;5011533;28;20020;-93
2023/09/21 00:08:38;;;;;;;;;;;;;;;32.72;27.11;97960.00;5012892;28;19968;-93
2023/09/21 00:11:04;;;;;;;;;;;;;;;32.41;27.24;97956.94;5012736;28;19948;-93
2023/09/21 00:13:31;;;;;;;;;;;;;;;32.59;27.33;97953.09;5013169;28;19999;-93
2023/09/21 00:16:01;;;;;;;;;;;;;;;32.70;27.36;97956.88;5009596;28;19918;-93
2023/09/21 00:18:29;;;;;;;;;;;;;;;32.68;26.90;97956.59;5009494;28;19976;-93
2023/09/21 00:20:57;;;;;;;;;;;;;;;32.77;26.72;97952.06;5011841;28;19937;-93
2023/09/21 00:23:25;;;;;;;;;;;;;;;32.53;27.56;97961.56;5009417;28;19967;-94
2023/09/21 00:25:58;;;;;;;;;;;;;;;32.21;27.69;97950.44;5010079;28;19929;-93
2023/09/21 00:28:24;;;;;;;;;;;;;;;32.07;27.75;97946.31;5002017;28;20344;-93
2023/09/21 00:30:57;;;;;;;;;;;;;;;31.66;28.41;97956.72;4998594;28;19922;-93
2023/09/21 00:33:27;;;;;;;;;;;;;;;31.33;28.75;97944.72;4997159;28;19930;-94
2023/09/21 00:35:53;;;;;;;;;;;;;;;30.78;29.80;97947.19;5009870;28;19921;-93
2023/09/21 00:38:19;;;;;;;;;;;;;;;31.06;29.34;97937.22;5010492;28;20024;-93
2023/09/21 00:40:45;;;;;;;;;;;;;;;31.33;28.95;97939.03;5002173;28;19928;-93
2023/09/21 00:43:20;;;;;;;;;;;;;;;31.31;29.13;97936.69;5011910;28;20320;-93
2023/09/21 00:45:50;;;;;;;;;;;;;;;31.43;29.00;97926.34;5005348;28;19926;-93
2023/09/21 00:48:21;;;;;;;;;;;;;;;30.69;29.87;97931.00;5007242;28;19925;-93
2023/09/21 00:50:48;;;;;;;;;;;;;;;30.27;30.86;97933.13;5011198;28;19921;-93
2023/09/21 00:53:15;;;;;;;;;;;;;;;30.72;30.35;97932.09;5010071;28;19917;-93
2023/09/21 00:55:44;;;;;;;;;;;;;;;30.63;30.23;97938.63;5008768;28;19929;-93
2023/09/21 00:58:10;;;;;;;;;;;;;;;29.62;31.78;97939.47;5000353;28;19977;-93
2023/09/21 01:00:37;;;;;;;;;;;;;;;29.25;32.75;97937.97;5009220;28;19922;-93
2023/09/21 01:03:11;;;;;;;;;;;;;;;29.67;31.98;97938.03;5010113;28;20385;-93
2023/09/21 01:05:41;;;;;;;;;;;;;;;30.40;31.03;97932.94;5010699;28;20400;-93
2023/09/21 01:08:10;;;;;;;;;;;;;;;29.77;31.90;97934.75;5005407;28;20373;-92
2023/09/21 01:10:41;;;;;;;;;;;;;;;29.20;32.95;97935.75;5013226;28;19921;-93
2023/09/21 01:13:08;;;;;;;;;;;;;;;28.84;33.30;97928.06;5011595;28;19921;-93
2023/09/21 01:15:34;;;;;;;;;;;;;;;29.73;31.58;97916.34;5010904;28;19921;-93
2023/09/21 01:18:02;;;;;;;;;;;;;;;30.55;30.56;97926.06;5009121;28;20337;-93
2023/09/21 01:20:30;;;;;;;;;;;;;;;30.78;30.13;97927.34;5009114;28;19921;-93
2023/09/21 01:23:10;;;;;;;;;;;;;;;30.61;30.23;97926.19;5006528;28;19928;-93
2023/09/21 01:25:44;;;;;;;;;;;;;;;30.61;30.42;97918.47;5013561;28;19922;-93
2023/09/21 01:28:12;;;;;;;;;;;;;;;30.82;29.77;97910.94;5014337;28;19933;-93
2023/09/21 01:30:39;;;;;;;;;;;;;;;31.14;29.35;97912.88;5011934;28;19972;-93
2023/09/21 01:33:08;;;;;;;;;;;;;;;30.83;29.76;97911.72;5014814;28;19929;-93
2023/09/21 01:35:36;;;;;;;;;;;;;;;30.99;29.81;97911.28;5009887;28;19929;-93
2023/09/21 01:38:03;;;;;;;;;;;;;;;31.12;29.36;97900.44;5009834;28;19921;-93
2023/09/21 01:40:29;;;;;;;;;;;;;;;31.42;28.89;97902.03;5004574;28;19925;-93
2023/09/21 01:42:55;;;;;;;;;;;;;;;31.71;28.51;97899.25;5011223;28;20021;-93
2023/09/21 01:45:21;;;;;;;;;;;;;;;31.55;28.31;97896.91;5017231;28;20419;-93
2023/09/21 01:47:47;;;;;;;;;;;;;;;31.39;28.81;97892.47;5013727;28;19925;-92
2023/09/21 01:50:15;;;;;;;;;;;;;;;31.34;29.06;97884.63;5012360;28;19928;-92
2023/09/21 01:52:42;;;;;;;;;;;;;;;31.17;29.09;97889.22;5012351;28;19921;-93
2023/09/21 01:55:10;;;;;;;;;;;;;;;31.19;28.65;97888.72;5007274;28;19921;-93
2023/09/21 01:57:38;;;;;;;;;;;;;;;30.80;29.03;97895.66;5011329;28;20016;-93
2023/09/21 02:00:21;;;;;;;;;;;;;;;30.78;29.63;97893.31;5020813;28;20369;-93
2023/09/21 02:02:48;;;;;;;;;;;;;;;30.11;30.73;97890.28;5008862;28;19992;-92
2023/09/21 02:05:15;;;;;;;;;;;;;;;29.58;31.25;97881.47;5013777;28;20005;-92
2023/09/21 02:07:43;;;;;;;;;;;;;;;29.13;32.36;97888.78;5014982;28;20400;-93
2023/09/21 02:10:11;;;;;;;;;;;;;;;29.59;31.60;97883.06;5015230;28;19921;-92
2023/09/21 02:12:38;;;;;;;;;;;;;;;28.99;32.87;97891.47;5001240;28;19929;-92
2023/09/21 02:15:09;;;;;;;;;;;;;;;28.45;33.44;97895.03;5008268;28;20012;-92
2023/09/21 02:17:39;;;;;;;;;;;;;;;29.08;32.13;97888.66;5003639;28;19933;-92
2023/09/21 02:20:13;;;;;;;;;;;;;;;29.04;32.32;97888.00;5014799;28;19921;-92
2023/09/21 02:22:41;;;;;;;;;;;;;;;28.40;33.01;97876.66;5006453;28;20000;-93
2023/09/21 02:25:07;;;;;;;;;;;;;;;29.02;32.25;97884.88;5006170;28;19991;-92
2023/09/21 02:27:35;;;;;;;;;;;;;;;29.81;30.86;97870.25;5013851;28;20393;-93
2023/09/21 02:30:02;;;;;;;;;;;;;;;29.39;31.37;97870.22;5009901;28;19928;-93
2023/09/21 02:32:28;;;;;;;;;;;;;;;27.73;34.21;97870.94;5009388;28;20282;-93
2023/09/21 02:34:54;;;;;;;;;;;;;;;28.40;33.51;97867.41;5006208;28;19928;-93
2023/09/21 02:37:20;;;;;;;;;;;;;;;29.40;31.67;97859.69;4998293;28;19926;-94
2023/09/21 02:39:46;;;;;;;;;;;;;;;29.72;31.02;97866.66;5009113;28;19921;-94
2023/09/21 02:42:12;;;;;;;;;;;;;;;30.38;30.09;97858.97;5005142;28;19928;-92
2023/09/21 02:44:39;;;;;;;;;;;;;;;29.90;30.93;97860.94;5006347;28;20370;-93
2023/09/21 02:47:05;;;;;;;;;;;;;;;29.91;31.16;97859.69;5003165;28;20013;-94
2023/09/21 02:49:31;;;;;;;;;;;;;;;30.23;30.20;97864.53;5007316;28;20009;-93
2023/09/21 02:51:57;;;;;;;;;;;;;;;30.76;29.70;97864.66;5012784;28;20016;-93
2023/09/21 02:54:23;;;;;;;;;;;;;;;30.49;30.17;97860.00;4995617;28;19921;-93
2023/09/21 02:56:50;;;;;;;;;;;;;;;29.87;31.18;97862.69;4999148;28;19921;-93
2023/09/21 02:59:16;;;;;;;;;;;;;;;29.16;32.17;97858.78;5012690;28;20006;-92
2023/09/21 03:01:42;;;;;;;;;;;;;;;29.52;31.87;97858.72;5011201;28;19937;-94
2023/09/21 03:04:10;;;;;;;;;;;;;;;29.89;31.33;97853.72;5003718;28;19926;-93
2023/09/21 03:06:37;;;;;;;;;;;;;;;29.71;31.53;97862.28;4997998;28;20289;-93
2023/09/21 03:09:05;;;;;;;;;;;;;;;30.18;30.59;97853.09;4999954;28;20329;-94
2023/09/21 03:11:31;;;;;;;;;;;;;;;28.90;32.95;97860.38;5010966;28;19921;-93
2023/09/21 03:13:57;;;;;;;;;;;;;;;29.73;31.50;97859.75;4997197;28;20016;-94
2023/09/21 03:16:23;;;;;;;;;;;;;;;29.76;31.99;97855.97;5003112;28;20039;-93
2023/09/21 03:18:49;;;;;;;;;;;;;;;29.87;31.55;97854.19;5005237;28;20389;-93
2023/09/21 03:21:15;;;;;;;;;;;;;;;29.74;31.58;97849.97;5005401;28;19944;-93
2023/09/21 03:23:41;;;;;;;;;;;;;;;30.19;31.28;97849.00;5002289;28;19921;-93
2023/09/21 03:26:10;;;;;;;;;;;;;;;30.70;30.21;97856.06;5013171;28;20344;-93
2023/09/21 03:28:37;;;;;;;;;;;;;;;30.86;29.75;97851.97;5013935;28;19929;-93
2023/09/21 03:31:03;;;;;;;;;;;;;;;30.56;30.28;97853.97;5002657;28;20012;-92
2023/09/21 03:33:29;;;;;;;;;;;;;;;31.08;29.50;97849.59;5012254;28;19960;-93
2023/09/21 03:35:56;;;;;;;;;;;;;;;30.87;29.79;97855.59;5020005;28;20004;-94
2023/09/21 03:38:22;;;;;;;;;;;;;;;30.42;30.54;97849.03;5003906;28;19922;-93
2023/09/21 03:40:49;;;;;;;;;;;;;;;29.72;31.64;97853.28;5013794;28;19917;-93
2023/09/21 03:43:15;;;;;;;;;;;;;;;29.65;31.31;97853.63;5001788;28;19922;-93
2023/09/21 03:45:42;;;;;;;;;;;;;;;29.47;31.68;97844.44;5009614;28;19926;-94
2023/09/21 03:48:09;;;;;;;;;;;;;;;29.62;31.46;97843.25;5010597;28;19932;-94
2023/09/21 03:50:36;;;;;;;;;;;;;;;29.34;31.84;97838.97;5014033;28;20519;-93
2023/09/21 03:53:04;;;;;;;;;;;;;;;29.15;32.21;97841.00;5009398;28;19964;-93
2023/09/21 03:55:31;;;;;;;;;;;;;;;28.83;32.68;97841.69;5009328;28;19925;-93
2023/09/21 03:57:57;;;;;;;;;;;;;;;29.19;32.00;97830.38;5003555;28;19922;-94
2023/09/21 04:02:49;;;;;;;;;;;;;;;29.36;31.66;97827.94;5013016;28;19922;-93
2023/09/21 04:05:18;;;;;;;;;;;;;;;29.19;32.16;97816.25;5011611;28;19917;-93
2023/09/21 04:07:45;;;;;;;;;;;;;;;29.22;31.92;97826.56;5013685;28;19928;-93
2023/09/21 04:10:11;;;;;;;;;;;;;;;29.58;31.32;97816.41;5011338;28;20351;-92
2023/09/21 04:12:40;;;;;;;;;;;;;;;29.32;31.76;97814.00;5011011;28;19921;-93
2023/09/21 04:15:07;;;;;;;;;;;;;;;29.54;31.83;97812.97;5002174;28;19921;-91
2023/09/21 04:17:33;;;;;;;;;;;;;;;29.56;31.21;97811.22;5005714;28;19929;-91
2023/09/21 04:19:59;;;;;;;;;;;;;;;29.50;31.43;97812.38;5012697;28;19928;-92
2023/09/21 04:22:25;;;;;;;;;;;;;;;28.77;32.67;97809.69;5008135;28;20020;-92
2023/09/21 04:24:51;;;;;;;;;;;;;;;29.12;32.19;97804.44;5011813;28;20668;-91
2023/09/21 04:27:17;;;;;;;;;;;;;;;29.62;31.42;97805.69;5016312;28;20293;-91
2023/09/21 04:29:44;;;;;;;;;;;;;;;30.06;30.71;97806.72;5001929;28;19922;-92
2023/09/21 04:32:10;;;;;;;;;;;;;;;29.58;31.57;97800.22;5009995;28;19932;-90
2023/09/21 04:34:36;;;;;;;;;;;;;;;29.79;30.85;97804.06;5011645;28;19921;-91
2023/09/21 04:37:02;;;;;;;;;;;;;;;30.10;30.36;97804.53;5008388;28;20381;-90
2023/09/21 04:39:28;;;;;;;;;;;;;;;29.45;31.14;97802.47;5008833;28;19921;-93
2023/09/21 04:41:54;;;;;;;;;;;;;;;29.29;31.62;97803.63;5010303;28;19928;-91
2023/09/21 04:44:20;;;;;;;;;;;;;;;29.47;31.56;97804.81;5011794;28;19926;-92
2023/09/21 04:46:46;;;;;;;;;;;;;;;29.95;30.38;97810.13;5009921;28;19926;-93
2023/09/21 04:49:12;;;;;;;;;;;;;;;30.36;29.93;97816.19;5006779;28;19929;-93
2023/09/21 04:51:38;;;;;;;;;;;;;;;30.44;29.88;97808.88;5013381;28;20328;-93
2023/09/21 04:54:05;;;;;;;;;;;;;;;30.42;30.32;97817.84;5009797;28;19917;-90
2023/09/21 04:56:31;;;;;;;;;;;;;;;30.50;29.99;97810.53;5005233;28;19922;-92
2023/09/21 04:58:58;;;;;;;;;;;;;;;30.85;29.56;97807.91;5008562;28;20374;-94
2023/09/21 05:01:25;;;;;;;;;;;;;;;30.71;29.83;97814.31;5021973;28;19976;-90
2023/09/21 05:03:51;;;;;;;;;;;;;;;30.98;29.41;97816.91;5016776;28;19929;-90
2023/09/21 05:06:21;;;;;;;;;;;;;;;31.02;29.43;97816.72;5013578;28;19919;-90
2023/09/21 05:08:47;;;;;;;;;;;;;;;31.11;29.62;97813.81;5016235;28;19960;-90
2023/09/21 05:11:13;;;;;;;;;;;;;;;30.80;30.13;97811.41;5016395;28;20309;-90
2023/09/21 05:13:40;;;;;;;;;;;;;;;30.39;30.42;97809.53;5016569;28;19963;-90
2023/09/21 05:16:06;;;;;;;;;;;;;;;30.41;30.71;97802.13;5017389;28;19972;-90
2023/09/21 05:18:32;;;;;;;;;;;;;;;29.99;31.19;97809.97;5016395;28;19929;-90
2023/09/21 05:20:58;;;;;;;;;;;;;;;29.50;32.08;97803.88;5005205;28;19965;-89
2023/09/21 05:23:24;;;;;;;;;;;;;;;29.56;32.15;97799.13;4997061;28;19925;-90
2023/09/21 05:25:50;;;;;;;;;;;;;;;29.48;32.09;97801.50;4997213;28;19929;-89
2023/09/21 05:28:18;;;;;;;;;;;;;;;29.81;32.23;97802.34;5000419;28;19922;-90
2023/09/21 05:30:46;;;;;;;;;;;;;;;30.78;30.32;97799.78;5016542;28;19917;-90
2023/09/21 05:33:12;;;;;;;;;;;;;;;31.19;30.12;97800.78;5009312;28;20271;-90
2023/09/21 05:35:38;;;;;;;;;;;;;;;31.36;29.55;97805.50;4996905;28;19917;-90
2023/09/21 05:38:06;;;;;;;;;;;;;;;31.71;28.81;97799.09;4996769;28;19941;-90
2023/09/21 05:40:33;;;;;;;;;;;;;;;31.93;28.99;97800.19;5003793;28;19922;-90
2023/09/21 05:42:59;;;;;;;;;;;;;;;31.98;29.39;97804.41;5009443;28;19925;-89
2023/09/21 05:45:26;;;;;;;;;;;;;;;31.93;29.38;97805.09;5008278;28;19976;-93
2023/09/21 05:47:52;;;;;;;;;;;;;;;32.17;29.40;97804.94;5004843;28;19925;-91
2023/09/21 05:50:18;;;;;;;;;;;;;;;31.75;29.92;97794.78;5013984;28;19944;-90
2023/09/21 05:52:44;;;;;;;;;;;;;;;31.73;29.60;97802.22;5010439;28;19922;-90
2023/09/21 05:55:11;;;;;;;;;;;;;;;31.45;29.68;97807.47;5012236;28;19926;-89
2023/09/21 05:57:39;;;;;;;;;;;;;;;30.72;31.68;97801.69;5007445;28;19968;-91
2023/09/21 06:00:07;;;;;;;;;;;;;;;30.53;31.61;97806.75;5001293;28;20448;-93
2023/09/21 06:02:34;;;;;;;;;;;;;;;31.10;30.52;97813.03;5003039;28;19922;-92
2023/09/21 06:05:00;;;;;;;;;;;;;;;30.53;31.46;97808.78;5005457;28;20016;-93
2023/09/21 06:07:27;;;;;;;;;;;;;;;31.42;31.51;97799.88;5010104;28;19922;-94
2023/09/21 06:09:53;;;;;;;;;;;;;;;30.94;31.26;97809.88;5015372;28;19924;-94
2023/09/21 06:12:19;;;;;;;;;;;;;;;30.34;31.81;97799.66;5015789;28;20016;-94
2023/09/21 06:14:45;;;;;;;;;;;;;;;30.45;32.39;97791.41;5015237;28;19917;-93
2023/09/21 06:17:13;;;;;;;;;;;;;;;30.71;32.42;97797.31;5014222;28;20016;-94
2023/09/21 06:19:39;;;;;;;;;;;;;;;31.33;31.16;97795.13;5014764;28;20436;-94
2023/09/21 06:22:06;;;;;;;;;;;;;;;32.14;31.04;97795.34;5014182;28;19922;-94
2023/09/21 06:24:32;;;;;;;;;;;;;;;31.98;29.94;97784.53;5015114;28;20357;-94
2023/09/21 06:26:58;;;;;;;;;;;;;;;32.43;30.25;97791.59;5014918;28;20270;-95
2023/09/21 06:29:24;;;;;;;;;;;;;;;31.81;30.49;97789.94;5029827;28;20263;-93
2023/09/21 06:31:54;;;;;;;;;;;;;;;32.02;31.09;97796.50;5015280;28;20373;-94
2023/09/21 06:34:24;;;;;;;;;;;;;;;32.09;30.52;97790.41;5015654;28;20401;-94
2023/09/21 06:36:50;;;;;;;;;;;;;;;32.36;30.79;97789.19;5010669;28;19926;-94
2023/09/21 06:39:16;;;;;;;;;;;;;;;32.59;29.90;97788.19;4999416;28;19928;-93
2023/09/21 06:41:44;;;;;;;;;;;;;;;32.28;30.88;97785.22;5005893;28;19921;-94
2023/09/21 06:44:10;;;;;;;;;;;;;;;32.63;30.50;97783.06;5015143;28;20293;-94
2023/09/21 06:46:36;;;;;;;;;;;;;;;32.64;30.20;97785.41;5015047;28;19922;-93
2023/09/21 06:49:03;;;;;;;;;;;;;;;32.97;30.17;97784.22;5010759;28;19925;-94
2023/09/21 06:51:29;;;;;;;;;;;;;;;32.99;30.74;97788.13;4995385;28;19925;-93
2023/09/21 06:53:58;;;;;;;;;;;;;;;32.98;30.28;97778.00;4995434;28;19964;-94
2023/09/21 06:56:24;;;;;;;;;;;;;;;32.91;30.38;97784.13;4995340;28;19922;-96
2023/09/21 06:58:51;;;;;;;;;;;;;;;32.84;30.68;97780.97;5006096;28;19917;-95
2023/09/21 07:01:17;;;;;;;;;;;;;;;33.05;31.59;97779.69;5014886;28;20385;-95
2023/09/21 07:03:44;;;;;;;;;;;;;;;32.70;31.15;97774.09;5015075;28;19959;-96
2023/09/21 07:06:10;;;;;;;;;;;;;;;32.41;31.53;97766.53;5015185;28;19918;-95
2023/09/21 07:08:36;;;;;;;;;;;;;;;32.17;31.99;97773.69;5014632;28;19918;-95
2023/09/21 07:11:02;;;;;;;;;;;;;;;32.58;31.35;97776.03;4995437;28;20018;-95
2023/09/21 07:13:29;;;;;;;;;;;;;;;33.01;31.42;97774.19;4994985;28;20325;-95
2023/09/21 07:15:55;;;;;;;;;;;;;;;33.68;30.61;97764.16;5017027;28;19924;-95
2023/09/21 07:18:21;;;;;;;;;;;;;;;34.35;29.24;97761.72;5034178;28;20424;-96
2023/09/21 07:20:47;;;;;;;;;;;;;;;33.74;30.27;97761.34;5014187;28;20008;-95
2023/09/21 07:23:13;;;;;;;;;;;;;;;33.67;30.02;97762.59;4994833;28;19925;-95
2023/09/21 07:25:39;;;;;;;;;;;;;;;33.51;30.45;97751.84;4995120;28;19918;-95
2023/09/21 07:28:07;;;;;;;;;;;;;;;33.68;28.94;97752.75;4994978;28;19922;-95
2023/09/21 07:30:35;;;;;;;;;;;;;;;33.71;29.33;97748.91;5010232;28;19921;-95
2023/09/21 07:33:01;;;;;;;;;;;;;;;34.51;29.48;97746.72;5014997;28;19917;-95
2023/09/21 07:35:28;;;;;;;;;;;;;;;34.85;29.27;97753.31;5003904;28;20374;-95
2023/09/21 07:37:54;;;;;;;;;;;;;;;35.20;28.61;97747.94;5014193;28;19936;-96
2023/09/21 07:40:21;;;;;;;;;;;;;;;35.25;28.69;97745.09;5013590;28;20357;-96
2023/09/21 07:42:51;;;;;;;;;;;;;;;35.06;29.06;97749.75;5014452;28;19917;-95
2023/09/21 07:45:17;;;;;;;;;;;;;;;34.94;29.65;97747.38;5014472;28;19921;-96
2023/09/21 07:47:46;;;;;;;;;;;;;;;34.41;28.82;97740.47;5014547;28;19953;-96
2023/09/21 07:50:13;;;;;;;;;;;;;;;34.21;30.12;97743.50;5027827;28;19971;-95
2023/09/21 07:52:39;;;;;;;;;;;;;;;34.35;30.52;97744.59;5033669;28;19957;-96
2023/09/21 07:55:05;;;;;;;;;;;;;;;34.36;31.18;97746.94;5033765;28;19917;-95
2023/09/21 07:57:40;;;;;;;;;;;;;;;34.53;29.66;97742.09;5023156;28;19923;-95
2023/09/21 08:00:09;;;;;;;;;;;;;;;34.69;28.88;97740.56;4993444;28;19980;-95
2023/09/21 08:02:35;;;;;;;;;;;;;;;34.97;28.33;97735.69;4994411;28;19924;-94
2023/09/21 08:05:09;;;;;;;;;;;;;;;35.02;28.56;97742.72;4994424;28;19925;-95
2023/09/21 08:07:36;;;;;;;;;;;;;;;35.22;27.43;97734.69;5011991;28;19932;-95
2023/09/21 08:10:03;;;;;;;;;;;;;;;34.95;27.53;97720.38;5015400;28;19964;-96
2023/09/21 08:12:30;;;;;;;;;;;;;;;35.33;28.36;97720.44;5018119;28;19947;-95
2023/09/21 08:14:57;;;;;;;;;;;;;;;34.65;27.78;97726.56;5018253;28;19918;-95
2023/09/21 08:17:23;;;;;;;;;;;;;;;34.99;28.92;97729.47;5017661;28;19972;-95
2023/09/21 08:19:49;;;;;;;;;;;;;;;34.85;28.01;97724.78;4999197;28;19918;-95
2023/09/21 08:22:16;;;;;;;;;;;;;;;35.25;27.31;97727.16;4998234;28;19941;-95
2023/09/21 08:24:42;;;;;;;;;;;;;;;35.62;27.25;97732.59;5016783;28;19921;-95
2023/09/21 08:27:08;;;;;;;;;;;;;;;36.14;26.23;97724.19;5017843;28;20270;-95
2023/09/21 08:29:34;;;;;;;;;;;;;;;35.93;25.80;97723.72;5014671;28;20017;-95
2023/09/21 08:32:01;;;;;;;;;;;;;;;36.16;27.87;97727.28;5005649;28;19926;-95
2023/09/21 08:34:28;;;;;;;;;;;;;;;36.67;25.81;97729.41;5017789;28;19924;-95
2023/09/21 08:36:54;;;;;;;;;;;;;;;36.12;25.93;97723.94;5017363;28;19963;-95
2023/09/21 08:39:20;;;;;;;;;;;;;;;36.24;26.65;97719.72;5017571;28;20101;-96
2023/09/21 08:41:49;;;;;;;;;;;;;;;36.49;26.28;97715.72;5018025;28;19920;-95
2023/09/21 08:44:19;;;;;;;;;;;;;;;36.01;26.21;97714.09;5017349;28;20424;-96
2023/09/21 08:46:45;;;;;;;;;;;;;;;35.54;26.75;97715.25;5017471;28;19925;-95
2023/09/21 08:49:13;;;;;;;;;;;;;;;35.58;28.12;97709.25;5017137;28;19917;-95
2023/09/21 08:51:39;;;;;;;;;;;;;;;35.81;27.52;97707.91;5016056;28;19917;-96
2023/09/21 08:54:08;;;;;;;;;;;;;;;35.43;28.15;97710.28;5017490;28;19963;-96
2023/09/21 08:56:36;;;;;;;;;;;;;;;35.66;26.50;97713.91;5017372;28;19918;-95
2023/09/21 08:59:04;;;;;;;;;;;;;;;36.27;27.30;97712.97;4998608;28;19918;-95
2023/09/21 09:01:30;;;;;;;;;;;;;;;36.56;26.45;97703.72;4997543;28;19928;-96
2023/09/21 09:03:57;;;;;;;;;;;;;;;36.64;27.23;97699.00;5012374;28;20392;-95
2023/09/21 09:06:24;;;;;;;;;;;;;;;36.80;26.93;97706.72;4997580;28;19969;-95
2023/09/21 09:08:50;;;;;;;;;;;;;;;36.08;27.57;97694.84;4997479;28;19921;-95
2023/09/21 09:11:35;;;;;;;;;;;;;;;35.31;28.28;97691.59;4997454;28;19924;-95
2023/09/21 09:14:02;;;;;;;;;;;;;;;34.92;28.14;97698.59;5002194;28;19921;-95
2023/09/21 09:16:28;;;;;;;;;;;;;;;35.47;28.22;97692.91;5016165;28;19975;-96
2023/09/21 09:18:58;;;;;;;;;;;;;;;35.07;28.52;97690.59;5016882;28;19924;-95
2023/09/21 09:21:25;;;;;;;;;;;;;;;35.12;28.57;97689.81;5016558;28;19924;-94
2023/09/21 09:23:51;;;;;;;;;;;;;;;35.65;28.40;97691.56;5015616;28;19948;-95
2023/09/21 09:26:18;;;;;;;;;;;;;;;35.74;27.28;97691.28;5016813;28;19917;-96
2023/09/21 09:28:44;;;;;;;;;;;;;;;35.71;28.48;97695.22;5016787;28;19925;-96
2023/09/21 09:31:14;;;;;;;;;;;;;;;36.60;26.96;97698.50;5017064;28;19984;-96
2023/09/21 09:33:41;;;;;;;;;;;;;;;36.94;26.63;97702.72;5016287;28;20020;-96
2023/09/21 09:36:07;;;;;;;;;;;;;;;36.60;28.11;97699.28;5016706;28;20328;-95
2023/09/21 09:38:33;;;;;;;;;;;;;;;36.14;28.31;97699.25;5016510;28;19917;-95
2023/09/21 09:41:04;;;;;;;;;;;;;;;36.44;27.78;97697.28;5016671;28;19980;-96
2023/09/21 09:43:30;;;;;;;;;;;;;;;35.45;29.70;97697.56;5015065;28;19984;-96
2023/09/21 09:45:58;;;;;;;;;;;;;;;34.52;30.57;97694.91;5015794;28;19917;-95
2023/09/21 09:48:25;;;;;;;;;;;;;;;35.27;29.98;97693.16;5004649;28;19925;-95
2023/09/21 09:50:55;;;;;;;;;;;;;;;36.17;29.15;97695.34;5016259;28;19917;-95
2023/09/21 09:53:23;;;;;;;;;;;;;;;36.99;28.41;97689.69;5016131;28;19922;-96
2023/09/21 09:55:53;;;;;;;;;;;;;;;37.18;27.84;97685.59;5016137;28;19971;-96
2023/09/21 09:58:20;;;;;;;;;;;;;;;35.22;30.79;97683.31;5016123;28;19955;-96
2023/09/21 10:00:47;;;;;;;;;;;;;;;35.35;30.13;97683.56;5015954;28;20339;-95
2023/09/21 10:03:13;;;;;;;;;;;;;;;35.49;28.07;97683.78;5016143;28;19920;-95
2023/09/21 10:05:42;;;;;;;;;;;;;;;36.12;29.63;97675.34;5024609;28;20376;-95
2023/09/21 10:08:08;;;;;;;;;;;;;;;36.02;29.79;97681.34;5035609;28;20396;-96
2023/09/21 10:10:46;;;;;;;;;;;;;;;35.89;28.97;97672.56;5035677;28;20357;-96
2023/09/21 10:13:12;;;;;;;;;;;;;;;37.10;27.53;97670.31;5035625;28;19917;-95
2023/09/21 10:15:39;;;;;;;;;;;;;;;36.66;28.78;97662.84;5034310;28;19921;-95
2023/09/21 10:18:05;;;;;;;;;;;;;;;36.65;28.47;97658.41;5016459;28;19933;-96
2023/09/21 10:20:36;;;;;;;;;;;;;;;36.97;26.34;97661.56;5016128;28;19918;-95
2023/09/21 10:23:09;;;;;;;;;;;;;;;37.49;26.79;97655.66;5015954;28;19959;-95
2023/09/21 10:25:39;;;;;;;;;;;;;;;37.20;27.32;97662.16;5015717;28;19947;-95
2023/09/21 10:28:27;;;;;;;;;;;;;;;36.76;25.44;97659.66;5015785;28;19917;-95
2023/09/21 10:30:53;;;;;;;;;;;;;;;36.79;26.13;97659.34;5015265;28;20289;-95
2023/09/21 10:33:20;;;;;;;;;;;;;;;37.98;23.82;97647.81;5014807;28;19921;-96
2023/09/21 10:35:46;;;;;;;;;;;;;;;36.97;25.78;97655.09;5014113;28;19918;-95
2023/09/21 10:38:13;;;;;;;;;;;;;;;36.65;27.13;97646.19;5015508;28;19996;-95
2023/09/21 10:40:40;;;;;;;;;;;;;;;37.29;28.02;97641.78;5015804;28;20366;-95
2023/09/21 10:43:25;;;;;;;;;;;;;;;38.00;25.48;97637.34;5014764;28;19921;-95
2023/09/21 10:45:58;;;;;;;;;;;;;;;37.36;25.52;97630.50;5013733;28;19972;-92
2023/09/21 10:48:25;;;;;;;;;;;;;;;37.34;24.80;97627.38;5015354;28;19932;-93
2023/09/21 10:50:51;;;;;;;;;;;;;;;37.88;27.59;97624.47;5015093;28;19921;-92
2023/09/21 10:53:17;;;;;;;;;;;;;;;38.28;25.87;97625.53;5015008;28;19925;-92
2023/09/21 10:55:43;;;;;;;;;;;;;;;38.20;24.64;97613.13;5015563;28;19945;-92
2023/09/21 10:58:10;;;;;;;;;;;;;;;38.17;25.79;97617.06;5014974;28;20392;-92
2023/09/21 11:00:38;;;;;;;;;;;;;;;37.76;26.40;97605.84;5014791;28;19917;-92
2023/09/21 11:03:04;;;;;;;;;;;;;;;37.61;25.75;97605.50;5014897;28;19924;-93
2023/09/21 11:05:30;;;;;;;;;;;;;;;38.01;24.68;97598.00;5015149;28;19976;-93
2023/09/21 11:07:56;;;;;;;;;;;;;;;38.35;24.10;97599.09;5014807;28;19917;-92
2023/09/21 11:10:22;;;;;;;;;;;;;;;38.81;25.34;97595.03;5014827;28;19921;-92
2023/09/21 11:12:48;;;;;;;;;;;;;;;37.29;24.65;97588.16;5015342;28;19921;-93
2023/09/21 11:15:16;;;;;;;;;;;;;;;36.28;25.96;97586.63;5010490;28;20290;-92
2023/09/21 11:17:43;;;;;;;;;;;;;;;37.27;25.25;97587.88;4995179;28;19926;-92
2023/09/21 11:20:14;;;;;;;;;;;;;;;37.11;24.90;97580.25;4994998;28;20008;-92
2023/09/21 11:22:41;;;;;;;;;;;;;;;36.16;26.59;97588.00;5009787;28;19917;-92
2023/09/21 11:25:10;;;;;;;;;;;;;;;37.28;24.83;97580.06;5007422;28;20133;-92
2023/09/21 11:27:38;;;;;;;;;;;;;;;38.26;26.22;97579.38;4994823;28;19918;-93
2023/09/21 11:30:07;;;;;;;;;;;;;;;38.68;22.89;97571.97;4999657;28;19924;-93
2023/09/21 11:32:40;;;;;;;;;;;;;;;35.95;27.59;97572.50;5014250;28;19940;-91
2023/09/21 11:35:07;;;;;;;;;;;;;;;37.14;24.17;97572.66;5013573;28;19918;-92
2023/09/21 11:37:33;;;;;;;;;;;;;;;36.90;25.25;97564.81;4997587;28;19922;-92
2023/09/21 11:39:59;;;;;;;;;;;;;;;37.41;25.18;97557.31;4994660;28;20385;-93
2023/09/21 11:42:25;;;;;;;;;;;;;;;37.54;24.19;97562.34;4994578;28;19926;-92
2023/09/21 11:44:51;;;;;;;;;;;;;;;37.50;24.66;97554.06;4994328;28;19918;-93
2023/09/21 11:47:18;;;;;;;;;;;;;;;37.32;25.47;97546.16;5009145;28;19922;-93
2023/09/21 11:49:44;;;;;;;;;;;;;;;37.59;25.43;97547.97;5014126;28;19964;-92
2023/09/21 11:52:11;;;;;;;;;;;;;;;37.74;24.52;97550.41;5014096;28;19927;-92
2023/09/21 11:54:38;;;;;;;;;;;;;;;37.53;25.46;97537.91;5013861;28;19960;-93
2023/09/21 11:57:06;;;;;;;;;;;;;;;36.88;25.20;97540.88;5013627;28;20016;-93
2023/09/21 11:59:39;;;;;;;;;;;;;;;37.46;24.44;97524.19;5013791;28;20012;-93
2023/09/21 12:02:09;;;;;;;;;;;;;;;37.45;24.22;97526.28;5014249;28;19921;-93
2023/09/21 12:04:37;;;;;;;;;;;;;;;36.73;24.49;97518.41;5014349;28;19921;-93
2023/09/21 12:07:04;;;;;;;;;;;;;;;37.70;26.01;97518.38;5014095;28;19980;-93
2023/09/21 12:09:30;;;;;;;;;;;;;;;38.65;22.83;97513.56;5014082;28;20333;-93
2023/09/21 12:11:58;;;;;;;;;;;;;;;37.89;24.59;97516.31;5013845;28;20068;-92
2023/09/21 12:14:24;;;;;;;;;;;;;;;38.34;22.99;97505.75;5005974;28;19960;-92
2023/09/21 12:16:50;;;;;;;;;;;;;;;38.26;23.17;97506.91;5004103;28;20345;-92
2023/09/21 12:19:18;;;;;;;;;;;;;;;38.95;24.72;97496.09;5013873;28;20400;-93
2023/09/21 12:21:48;;;;;;;;;;;;;;;39.25;25.33;97502.31;5014370;28;19976;-93
2023/09/21 12:24:15;;;;;;;;;;;;;;;39.71;22.99;97500.06;5014012;28;19918;-93
2023/09/21 12:26:41;;;;;;;;;;;;;;;36.55;27.21;97493.38;5013647;28;19921;-92
2023/09/21 12:29:10;;;;;;;;;;;;;;;37.52;24.11;97491.28;5013691;28;20381;-93
2023/09/21 12:31:37;;;;;;;;;;;;;;;38.35;24.48;97495.81;5013761;28;19924;-92
2023/09/21 12:34:03;;;;;;;;;;;;;;;39.14;23.73;97479.50;5010555;28;19963;-93
2023/09/21 12:36:29;;;;;;;;;;;;;;;39.68;22.17;97481.84;5004910;28;19982;-92
2023/09/21 12:38:55;;;;;;;;;;;;;;;39.98;23.73;97487.19;5008783;28;19921;-93
2023/09/21 12:41:21;;;;;;;;;;;;;;;39.85;22.26;97481.47;4997426;28;19983;-92
2023/09/21 12:43:47;;;;;;;;;;;;;;;39.73;20.59;97483.03;5014768;28;20385;-93
2023/09/21 12:46:13;;;;;;;;;;;;;;;40.19;20.75;97481.47;5004666;28;20377;-92
2023/09/21 12:48:39;;;;;;;;;;;;;;;40.21;20.50;97479.59;5013736;28;19921;-92
2023/09/21 12:51:05;;;;;;;;;;;;;;;40.44;19.02;97471.19;5013617;28;19918;-93